Time;durP1;ratioP1;P1;durP2;ratioP2;P2;SDS_P1;SDS_P2;PMS_P1;PMS_P2;Temp;Humidity;BMP_temperature;BMP_pressure;BME280_temperature;BME280_humidity;BME280_pressure;Samples;Min_cycle;Max_cycle;Signal;HPM_P1;HPM_P2
2021/09/17 00:01:10;;;;;;;7.50;4.15;;;;;;;18.48;100.00;101347.62;1725967;83;20897;-81
2021/09/17 00:03:37;;;;;;;6.60;4.65;;;;;;;18.51;100.00;101336.03;1726041;83;21136;-81
2021/09/17 00:06:03;;;;;;;8.40;4.67;;;;;;;18.52;100.00;101341.64;1726295;83;20947;-81
2021/09/17 00:08:30;;;;;;;8.30;4.17;;;;;;;18.52;100.00;101339.02;1726482;83;20983;-81
2021/09/17 00:10:59;;;;;;;8.63;4.65;;;;;;;18.52;100.00;101325.88;1725969;82;21577;-81
2021/09/17 00:13:27;;;;;;;7.95;5.00;;;;;;;18.52;100.00;101321.93;1696152;83;21592;-81
2021/09/17 00:15:55;;;;;;;8.43;4.45;;;;;;;18.52;100.00;101320.62;1726644;83;21107;-82
2021/09/17 00:18:22;;;;;;;9.90;4.95;;;;;;;18.53;100.00;101318.34;1726284;83;20883;-82
2021/09/17 00:20:49;;;;;;;12.05;4.53;;;;;;;18.52;100.00;101311.89;1726225;83;21647;-82
2021/09/17 00:23:18;;;;;;;8.23;4.83;;;;;;;18.53;100.00;101313.09;1726399;82;21033;-81
2021/09/17 00:25:46;;;;;;;11.95;4.67;;;;;;;18.55;100.00;101315.56;1726014;83;21003;-81
2021/09/17 00:28:13;;;;;;;9.60;4.85;;;;;;;18.55;100.00;101319.51;1725960;83;21186;-82
2021/09/17 00:30:41;;;;;;;14.35;5.05;;;;;;;18.55;100.00;101316.88;1726110;83;20999;-81
2021/09/17 00:33:08;;;;;;;8.45;4.80;;;;;;;18.56;100.00;101315.45;1725941;83;20939;-81
2021/09/17 00:35:35;;;;;;;11.10;4.78;;;;;;;18.58;100.00;101319.23;1725599;83;21073;-82
2021/09/17 00:38:03;;;;;;;11.15;4.60;;;;;;;18.60;100.00;101310.75;1725854;83;21021;-82
2021/09/17 00:40:32;;;;;;;10.55;4.55;;;;;;;18.62;100.00;101303.55;1725834;82;20923;-81
2021/09/17 00:43:00;;;;;;;11.35;4.62;;;;;;;18.63;100.00;101303.90;1725759;83;21438;-82
2021/09/17 00:45:28;;;;;;;15.78;5.03;;;;;;;18.64;100.00;101299.80;1723885;82;21518;-84
2021/09/17 00:47:57;;;;;;;10.23;4.67;;;;;;;18.67;100.00;101302.63;1721050;83;21037;-85
2021/09/17 00:50:25;;;;;;;5.80;4.83;;;;;;;18.68;100.00;101300.36;1720949;83;21046;-82
2021/09/17 00:52:52;;;;;;;7.97;4.55;;;;;;;18.69;100.00;101294.98;1720908;83;21152;-82
2021/09/17 00:55:21;;;;;;;9.88;4.80;;;;;;;18.71;100.00;101295.66;1700446;83;21574;-83
2021/09/17 00:57:49;;;;;;;6.45;4.50;;;;;;;18.72;100.00;101286.81;1720748;83;21659;-82
2021/09/17 01:00:18;;;;;;;9.05;4.90;;;;;;;18.75;100.00;101290.48;1720682;83;20959;-81
2021/09/17 01:02:45;;;;;;;7.30;4.28;;;;;;;18.76;100.00;101290.80;1720686;83;21055;-82
2021/09/17 01:05:13;;;;;;;9.98;4.42;;;;;;;18.78;100.00;101286.73;1721084;83;21395;-84
2021/09/17 01:07:43;;;;;;;7.20;4.45;;;;;;;18.81;100.00;101283.83;1720700;83;21063;-81
2021/09/17 01:10:10;;;;;;;12.78;5.08;;;;;;;18.82;100.00;101277.13;1720890;83;20856;-82
2021/09/17 01:12:38;;;;;;;10.70;4.78;;;;;;;18.84;100.00;101275.17;1720784;83;20915;-83
2021/09/17 01:15:07;;;;;;;16.23;4.55;;;;;;;18.86;100.00;101270.59;1720820;83;21538;-81
2021/09/17 01:17:37;;;;;;;7.90;5.12;;;;;;;18.86;100.00;101264.02;1720956;83;21137;-84
2021/09/17 01:20:10;;;;;;;17.67;5.35;;;;;;;18.88;100.00;101260.79;1721027;83;20892;-82
2021/09/17 01:22:38;;;;;;;9.35;4.92;;;;;;;18.89;100.00;101257.17;1719848;83;20983;-82
2021/09/17 01:25:07;;;;;;;15.32;4.67;;;;;;;18.90;100.00;101253.58;1721094;83;21537;-80
2021/09/17 01:27:34;;;;;;;9.65;4.53;;;;;;;18.92;100.00;101255.57;1721006;83;21030;-81
2021/09/17 01:30:01;;;;;;;8.60;4.83;;;;;;;18.92;100.00;101249.00;1720862;83;21153;-81
2021/09/17 01:32:28;;;;;;;7.47;4.37;;;;;;;18.93;100.00;101253.77;1720813;83;21525;-81
2021/09/17 01:34:54;;;;;;;11.20;5.20;;;;;;;18.94;100.00;101248.88;1720852;83;21054;-81
2021/09/17 01:37:21;;;;;;;9.28;4.50;;;;;;;18.95;100.00;101253.17;1720972;83;21502;-81
2021/09/17 01:39:50;;;;;;;8.78;5.15;;;;;;;18.95;100.00;101243.97;1720775;83;21017;-82
2021/09/17 01:42:17;;;;;;;10.70;4.70;;;;;;;18.96;100.00;101242.48;1720775;83;21157;-81
2021/09/17 01:44:45;;;;;;;6.72;4.42;;;;;;;18.96;100.00;101243.81;1721051;83;21010;-81
2021/09/17 01:47:12;;;;;;;14.45;5.50;;;;;;;18.98;100.00;101239.22;1721119;83;20895;-84
2021/09/17 01:49:38;;;;;;;8.95;5.03;;;;;;;18.99;100.00;101232.16;1720966;83;20991;-81
2021/09/17 01:52:06;;;;;;;8.98;5.47;;;;;;;19.01;100.00;101227.61;1721007;83;20982;-83
2021/09/17 01:54:32;;;;;;;10.38;5.15;;;;;;;19.03;100.00;101232.23;1721151;83;21144;-81
2021/09/17 01:56:59;;;;;;;10.75;5.35;;;;;;;19.05;100.00;101230.80;1720873;83;20946;-84
2021/09/17 01:59:26;;;;;;;14.43;5.20;;;;;;;19.06;100.00;101236.38;1721168;83;21006;-83
2021/09/17 02:01:53;;;;;;;10.75;5.12;;;;;;;19.08;100.00;101235.77;1677551;83;21086;-81
2021/09/17 02:04:20;;;;;;;8.13;4.78;;;;;;;19.09;100.00;101234.78;1721001;83;21557;-82
2021/09/17 02:06:47;;;;;;;17.00;5.87;;;;;;;19.11;100.00;101236.80;1721616;83;21081;-82
2021/09/17 02:09:16;;;;;;;8.13;5.15;;;;;;;19.14;100.00;101239.15;1720911;83;21509;-81
2021/09/17 02:11:46;;;;;;;11.75;5.40;;;;;;;19.15;100.00;101240.30;1720832;83;21635;-84
2021/09/17 02:14:14;;;;;;;12.63;5.00;;;;;;;19.18;100.00;101237.87;1720854;83;21596;-80
2021/09/17 02:16:41;;;;;;;7.22;5.30;;;;;;;19.18;100.00;101237.39;1721032;83;20924;-81
2021/09/17 02:19:09;;;;;;;10.05;5.10;;;;;;;19.20;100.00;101236.78;1721002;83;21981;-82
2021/09/17 02:21:39;;;;;;;7.87;5.62;;;;;;;19.21;100.00;101233.16;1720910;83;20975;-81
2021/09/17 02:24:06;;;;;;;13.22;5.33;;;;;;;19.23;100.00;101234.34;1720888;83;21537;-84
2021/09/17 02:26:34;;;;;;;10.43;5.53;;;;;;;19.23;100.00;101235.17;1720786;83;20959;-81
2021/09/17 02:29:01;;;;;;;13.32;5.40;;;;;;;19.25;100.00;101235.02;1720989;83;20899;-81
2021/09/17 02:31:28;;;;;;;16.93;7.03;;;;;;;19.24;100.00;101226.28;1721143;83;21955;-82
2021/09/17 02:33:54;;;;;;;8.63;5.40;;;;;;;19.25;100.00;101230.59;1720812;83;20935;-81
2021/09/17 02:36:21;;;;;;;13.38;5.67;;;;;;;19.26;100.00;101228.79;1720778;83;21031;-81
2021/09/17 02:38:48;;;;;;;15.38;5.78;;;;;;;19.25;100.00;101218.74;1720959;83;21291;-82
2021/09/17 02:41:14;;;;;;;13.85;5.50;;;;;;;19.26;100.00;101231.42;1720811;83;21078;-82
2021/09/17 02:43:44;;;;;;;12.58;5.83;;;;;;;19.25;100.00;101229.27;1720689;83;22053;-81
2021/09/17 02:46:10;;;;;;;9.03;5.45;;;;;;;19.26;100.00;101222.21;1721355;82;20896;-82
2021/09/17 02:48:39;;;;;;;9.28;5.92;;;;;;;19.25;100.00;101216.59;1721208;83;20986;-82
2021/09/17 02:51:08;;;;;;;8.50;5.85;;;;;;;19.25;100.00;101216.59;1721090;83;21505;-82
2021/09/17 02:53:34;;;;;;;11.05;5.45;;;;;;;19.24;100.00;101215.77;1724558;83;21549;-82
2021/09/17 02:56:03;;;;;;;9.30;5.80;;;;;;;19.24;100.00;101211.02;1720984;83;20967;-81
2021/09/17 02:58:31;;;;;;;13.20;6.67;;;;;;;19.22;100.00;101209.82;1720865;83;21033;-84
2021/09/17 03:00:57;;;;;;;9.25;6.30;;;;;;;19.22;100.00;101203.73;1720914;83;20963;-82
2021/09/17 03:03:24;;;;;;;18.98;5.95;;;;;;;19.21;100.00;101205.52;1720787;83;21973;-80
2021/09/17 03:05:53;;;;;;;9.60;6.37;;;;;;;19.21;100.00;101204.72;1721102;83;21066;-84
2021/09/17 03:08:21;;;;;;;10.75;5.37;;;;;;;19.19;100.00;101199.59;1721333;83;21392;-82
2021/09/17 03:10:48;;;;;;;12.07;6.12;;;;;;;19.20;100.00;101199.11;1720806;83;21014;-85
2021/09/17 03:13:17;;;;;;;13.43;7.05;;;;;;;19.20;100.00;101195.99;1720997;83;21486;-82
2021/09/17 03:15:45;;;;;;;10.23;5.55;;;;;;;19.20;100.00;101196.47;1720905;83;21018;-81
2021/09/17 03:18:14;;;;;;;12.35;6.58;;;;;;;19.20;100.00;101197.79;1721108;83;21544;-81
2021/09/17 03:20:42;;;;;;;9.38;6.60;;;;;;;19.19;100.00;101199.59;1720986;83;21140;-83
2021/09/17 03:23:11;;;;;;;15.55;6.62;;;;;;;19.19;100.00;101195.64;1720869;83;20951;-81
2021/09/17 03:25:38;;;;;;;10.30;6.35;;;;;;;19.19;100.00;101194.80;1721112;83;20951;-85
2021/09/17 03:28:07;;;;;;;11.38;6.83;;;;;;;19.19;100.00;101194.80;1721043;83;21509;-82
2021/09/17 03:30:34;;;;;;;10.38;6.80;;;;;;;19.19;100.00;101193.49;1721112;83;20955;-82
2021/09/17 03:33:02;;;;;;;9.85;7.55;;;;;;;19.20;100.00;101195.16;1721224;83;21081;-82
2021/09/17 03:35:29;;;;;;;14.50;7.28;;;;;;;19.19;100.00;101194.80;1721069;83;21015;-84
2021/09/17 03:37:55;;;;;;;11.22;7.42;;;;;;;19.20;100.00;101196.47;1721211;83;20954;-83
2021/09/17 03:40:24;;;;;;;9.93;7.28;;;;;;;19.20;100.00;101195.99;1720946;83;21443;-81
2021/09/17 03:42:51;;;;;;;11.88;7.17;;;;;;;19.20;100.00;101194.67;1721033;83;20864;-83
2021/09/17 03:45:17;;;;;;;13.08;7.92;;;;;;;19.20;100.00;101198.63;1720928;83;21149;-85
2021/09/17 03:47:45;;;;;;;10.72;7.75;;;;;;;19.22;100.00;101201.93;1720796;82;21604;-81
2021/09/17 03:50:12;;;;;;;12.03;7.97;;;;;;;19.24;100.00;101197.85;1720980;83;21034;-82
2021/09/17 03:52:39;;;;;;;18.05;8.35;;;;;;;19.24;100.00;101194.70;1721061;83;20959;-81
2021/09/17 03:55:07;;;;;;;14.53;7.87;;;;;;;19.24;100.00;101192.08;1721185;83;21007;-83
2021/09/17 03:57:34;;;;;;;11.20;8.10;;;;;;;19.27;100.00;101189.67;1720975;83;21160;-82
2021/09/17 04:00:01;;;;;;;12.65;8.78;;;;;;;19.30;100.00;101193.33;1720860;83;20990;-82
2021/09/17 04:02:30;;;;;;;14.25;8.83;;;;;;;19.31;100.00;101189.70;1720893;83;20940;-83
2021/09/17 04:04:56;;;;;;;9.80;8.10;;;;;;;19.32;100.00;101194.00;1721000;83;20970;-81
2021/09/17 04:07:23;;;;;;;13.22;8.45;;;;;;;19.33;100.00;101191.24;1721114;83;21490;-83
2021/09/17 04:09:49;;;;;;;11.75;7.78;;;;;;;19.34;100.00;101192.05;1720846;83;21139;-81
2021/09/17 04:12:16;;;;;;;13.78;8.33;;;;;;;19.35;100.00;101187.13;1720667;83;20939;-85
2021/09/17 04:14:43;;;;;;;12.05;7.75;;;;;;;19.35;100.00;101189.28;1720665;83;20935;-84
2021/09/17 04:17:11;;;;;;;12.45;8.05;;;;;;;19.36;100.00;101179.59;1720787;83;20939;-83
2021/09/17 04:19:39;;;;;;;15.20;8.15;;;;;;;19.37;100.00;101182.06;1721389;83;20988;-84
2021/09/17 04:22:06;;;;;;;14.63;9.30;;;;;;;19.37;100.00;101179.42;1721026;83;21121;-82
2021/09/17 04:24:36;;;;;;;10.45;8.23;;;;;;;19.38;100.00;101181.09;1721086;83;21446;-82
2021/09/17 04:27:04;;;;;;;13.15;8.30;;;;;;;19.40;100.00;101187.58;1720891;83;21525;-83
2021/09/17 04:29:32;;;;;;;13.05;8.60;;;;;;;19.41;100.00;101181.31;1720954;83;20959;-82
2021/09/17 04:32:00;;;;;;;14.20;9.05;;;;;;;19.43;100.00;101187.28;1721023;83;20935;-81
2021/09/17 04:34:28;;;;;;;12.68;8.50;;;;;;;19.45;100.00;101180.06;1721003;83;21138;-85
2021/09/17 04:36:56;;;;;;;13.20;9.35;;;;;;;19.46;100.00;101179.89;1720763;83;21067;-84
2021/09/17 04:39:23;;;;;;;17.07;9.20;;;;;;;19.47;100.00;101177.61;1721129;83;20947;-81
2021/09/17 04:41:53;;;;;;;11.43;8.38;;;;;;;19.50;100.00;101178.64;1721366;83;21002;-85
2021/09/17 04:44:20;;;;;;;20.70;9.18;;;;;;;19.51;100.00;101171.09;1721667;83;21066;-87
2021/09/17 04:46:48;;;;;;;13.85;9.68;;;;;;;19.55;100.00;101175.58;1723086;82;21154;-86
2021/09/17 04:49:17;;;;;;;18.57;9.70;;;;;;;19.58;100.00;101165.23;1727471;82;20979;-80
2021/09/17 04:51:44;;;;;;;15.98;10.32;;;;;;;19.60;100.00;101171.17;1726497;83;21490;-82
2021/09/17 04:54:13;;;;;;;19.32;8.78;;;;;;;19.61;100.00;101168.41;1726354;83;21062;-86
2021/09/17 04:56:40;;;;;;;15.45;9.43;;;;;;;19.63;100.00;101169.56;1726674;83;21521;-84
2021/09/17 04:59:07;;;;;;;19.90;9.83;;;;;;;19.67;100.00;101168.30;1726718;83;21581;-83
2021/09/17 05:01:34;;;;;;;11.15;9.10;;;;;;;19.71;100.00;101165.23;1726838;82;21426;-83
2021/09/17 05:04:01;;;;;;;10.72;9.28;;;;;;;19.78;100.00;101172.06;1726282;81;21003;-83
2021/09/17 05:06:30;;;;;;;20.32;9.40;;;;;;;19.81;100.00;101173.91;1726222;82;21071;-85
2021/09/17 05:09:00;;;;;;;12.05;9.48;;;;;;;19.86;100.00;101170.81;1726696;83;21497;-85
2021/09/17 05:11:28;;;;;;;13.95;10.10;;;;;;;19.88;100.00;101159.15;1726542;82;20955;-81
2021/09/17 05:13:55;;;;;;;17.10;9.83;;;;;;;19.91;100.00;101154.90;1726243;81;21093;-84
2021/09/17 05:16:23;;;;;;;13.90;9.73;;;;;;;19.96;100.00;101160.56;1726877;82;20938;-85
2021/09/17 05:18:50;;;;;;;18.25;9.35;;;;;;;20.02;100.00;101164.40;1727297;82;20966;-80
2021/09/17 05:21:20;;;;;;;21.30;9.53;;;;;;;20.07;100.00;101166.08;1727300;81;21058;-85
2021/09/17 05:23:47;;;;;;;17.50;9.95;;;;;;;20.13;100.00;101164.67;1727002;81;22294;-79
2021/09/17 05:26:14;;;;;;;17.87;9.83;;;;;;;20.18;100.00;101161.09;1727150;82;21455;-82
2021/09/17 05:28:44;;;;;;;19.70;9.48;;;;;;;20.24;100.00;101163.12;1726959;82;20921;-84
2021/09/17 05:31:12;;;;;;;14.43;10.10;;;;;;;20.30;100.00;101159.91;1726453;81;20932;-82
2021/09/17 05:33:43;;;;;;;13.62;9.43;;;;;;;20.34;100.00;101155.51;1726470;81;21501;-85
2021/09/17 05:36:10;;;;;;;18.95;10.18;;;;;;;20.40;100.00;101152.27;1725766;81;21134;-77
2021/09/17 05:38:39;;;;;;;14.53;8.98;;;;;;;20.47;100.00;101145.89;1726395;83;21525;-84
2021/09/17 05:41:07;;;;;;;20.92;8.95;;;;;;;20.52;100.00;101139.16;1726054;82;20975;-82
2021/09/17 05:43:34;;;;;;;13.08;8.63;;;;;;;20.58;100.00;101135.11;1726493;82;20908;-81
2021/09/17 05:46:01;;;;;;;10.80;9.25;;;;;;;20.64;100.00;101135.81;1726503;82;20999;-82
2021/09/17 05:48:29;;;;;;;21.65;10.43;;;;;;;20.70;100.00;101136.98;1726457;83;21144;-82
2021/09/17 05:50:56;;;;;;;13.75;9.40;;;;;;;20.76;100.00;101134.56;1726405;83;20998;-80
2021/09/17 05:53:23;;;;;;;17.75;9.70;;;;;;;20.83;100.00;101130.33;1725969;81;21050;-81
2021/09/17 05:55:50;;;;;;;10.53;9.38;;;;;;;20.88;100.00;101133.31;1726550;81;20908;-85
2021/09/17 05:58:17;;;;;;;13.60;9.53;;;;;;;20.94;100.00;101134.48;1718046;80;21102;-79
2021/09/17 06:00:44;;;;;;;12.98;9.98;;;;;;;21.01;100.00;101131.56;1711872;81;21098;-85
2021/09/17 06:03:13;;;;;;;14.87;9.00;;;;;;;21.09;100.00;101130.34;1689586;83;21108;-81
2021/09/17 06:05:43;;;;;;;16.02;9.13;;;;;;;21.16;100.00;101130.02;1725975;81;21082;-81
2021/09/17 06:08:13;;;;;;;21.23;9.48;;;;;;;21.24;100.00;101124.79;1718582;80;21077;-82
2021/09/17 06:10:39;;;;;;;14.03;9.20;;;;;;;21.33;100.00;101126.95;1712847;81;20979;-81
2021/09/17 06:13:06;;;;;;;12.15;8.38;;;;;;;21.42;100.00;101116.75;1725568;81;21191;-77
2021/09/17 06:15:33;;;;;;;12.75;8.95;;;;;;;21.49;100.00;101125.20;1726213;81;20879;-81
2021/09/17 06:18:01;;;;;;;19.70;9.43;;;;;;;21.56;100.00;101113.51;1726194;81;20923;-81
2021/09/17 06:20:29;;;;;;;11.95;7.75;;;;;;;21.62;100.00;101118.98;1726342;81;21101;-83
2021/09/17 06:22:57;;;;;;;13.65;8.13;;;;;;;21.70;100.00;101118.15;1726238;82;20979;-82
2021/09/17 06:25:27;;;;;;;11.55;7.62;;;;;;;21.78;100.00;101109.42;1726277;82;21134;-87
2021/09/17 06:27:55;;;;;;;9.53;7.65;;;;;;;21.86;100.00;101113.38;1726398;83;21026;-82
2021/09/17 06:30:23;;;;;;;13.45;7.83;;;;;;;21.93;100.00;101117.90;1726391;83;21411;-78
2021/09/17 06:32:52;;;;;;;11.97;7.50;;;;;;;22.00;100.00;101118.91;1726400;83;20991;-83
2021/09/17 06:35:20;;;;;;;10.78;7.65;;;;;;;22.07;100.00;101121.23;1726660;82;20971;-84
2021/09/17 06:37:53;;;;;;;12.40;7.30;;;;;;;22.15;100.00;101115.09;1726247;82;21787;-85
2021/09/17 06:40:22;;;;;;;13.20;6.75;;;;;;;22.26;100.00;101116.11;1726224;83;21011;-81
2021/09/17 06:42:50;;;;;;;12.63;6.83;;;;;;;22.35;96.09;101116.92;1725554;81;20844;-85
2021/09/17 06:45:17;;;;;;;12.78;6.45;;;;;;;22.43;93.75;101113.77;1694875;83;20956;-80
2021/09/17 06:47:51;;;;;;;12.37;5.97;;;;;;;22.50;90.30;101111.28;1694966;84;21087;-79
2021/09/17 06:50:28;;;;;;;10.95;5.72;;;;;;;22.53;89.93;101104.33;1696312;84;21146;-80
2021/09/17 06:52:55;;;;;;;9.45;6.40;;;;;;;22.60;91.29;101109.28;1700779;81;21226;-81
2021/09/17 06:55:30;;;;;;;14.20;6.55;;;;;;;22.66;90.22;101106.00;1725976;83;20962;-81
2021/09/17 06:58:04;;;;;;;9.55;6.53;;;;;;;22.73;89.52;101104.83;1725344;83;20978;-81
2021/09/17 07:00:35;;;;;;;15.70;5.97;;;;;;;22.79;87.55;101105.47;1725137;81;21055;-84
2021/09/17 07:03:05;;;;;;;8.38;5.83;;;;;;;22.86;86.72;101105.13;1696432;83;21026;-82
2021/09/17 07:05:43;;;;;;;11.53;6.33;;;;;;;22.94;86.93;101105.12;1696754;81;20939;-82
2021/09/17 07:08:14;;;;;;;18.30;7.25;;;;;;;23.04;85.85;101106.55;1727013;81;20986;-80
2021/09/17 07:10:42;;;;;;;15.50;7.20;;;;;;;23.14;86.08;101093.94;1725867;83;21111;-80
2021/09/17 07:13:14;;;;;;;13.85;6.42;;;;;;;23.20;84.71;101094.57;1726274;81;21014;-82
2021/09/17 07:15:43;;;;;;;6.47;5.62;;;;;;;23.25;84.79;101098.04;1726706;83;21140;-78
2021/09/17 07:18:11;;;;;;;17.73;6.72;;;;;;;23.31;84.26;101096.52;1724638;83;21604;-82
2021/09/17 07:20:43;;;;;;;27.67;7.25;;;;;;;23.40;83.46;101091.53;1724969;81;21113;-79
2021/09/17 07:23:11;;;;;;;11.83;6.35;;;;;;;23.49;82.36;101097.94;1707838;81;21152;-81
2021/09/17 07:25:39;;;;;;;14.43;6.60;;;;;;;23.54;78.46;101091.63;1695839;84;21157;-81
2021/09/17 07:28:07;;;;;;;11.83;5.85;;;;;;;23.54;77.80;101088.16;1694731;84;21244;-84
2021/09/17 07:30:34;;;;;;;14.15;5.83;;;;;;;23.54;78.32;101094.28;1715268;81;21025;-84
2021/09/17 07:33:02;;;;;;;15.75;7.12;;;;;;;23.60;79.04;101086.95;1722167;81;21591;-78
2021/09/17 07:35:29;;;;;;;9.88;6.37;;;;;;;23.71;78.61;101087.86;1720203;83;21022;-77
2021/09/17 07:38:01;;;;;;;20.48;6.75;;;;;;;23.81;78.08;101080.17;1724866;83;21050;-82
2021/09/17 07:40:29;;;;;;;15.03;6.90;;;;;;;23.90;78.21;101077.81;1723491;83;21086;-81
2021/09/17 07:42:56;;;;;;;20.23;7.03;;;;;;;23.98;77.28;101077.73;1713752;81;21103;-78
2021/09/17 07:45:24;;;;;;;26.07;6.45;;;;;;;24.04;76.65;101083.16;1724575;83;21066;-80
2021/09/17 07:47:54;;;;;;;17.25;6.45;;;;;;;24.09;76.39;101077.33;1724713;83;21490;-81
2021/09/17 07:50:22;;;;;;;19.82;6.58;;;;;;;24.08;75.44;101068.55;1725934;82;21077;-86
2021/09/17 07:52:50;;;;;;;15.80;6.45;;;;;;;24.09;75.34;101064.86;1725079;83;21199;-84
2021/09/17 07:55:20;;;;;;;19.15;7.90;;;;;;;24.15;74.46;101072.66;1725087;83;20974;-80
2021/09/17 07:57:47;;;;;;;18.60;6.83;;;;;;;24.17;73.83;101067.99;1725786;83;21568;-77
2021/09/17 08:00:16;;;;;;;14.15;6.40;;;;;;;24.17;74.23;101067.49;1701179;83;21419;-83
2021/09/17 08:02:44;;;;;;;12.90;6.85;;;;;;;24.22;74.41;101066.44;1717318;81;20883;-79
2021/09/17 08:05:14;;;;;;;12.33;6.30;;;;;;;24.25;74.58;101066.58;1707383;82;21074;-81
2021/09/17 08:07:47;;;;;;;8.48;6.72;;;;;;;24.33;75.34;101065.19;1698092;83;21010;-76
2021/09/17 08:10:17;;;;;;;12.55;6.40;;;;;;;24.41;72.27;101065.09;1697188;84;21106;-77
2021/09/17 08:12:44;;;;;;;15.75;7.47;;;;;;;24.45;71.90;101053.13;1696057;84;21039;-82
2021/09/17 08:15:13;;;;;;;10.23;6.83;;;;;;;24.50;71.36;101047.29;1695701;84;21238;-76
2021/09/17 08:17:40;;;;;;;17.32;6.75;;;;;;;24.55;72.08;101057.67;1696076;84;21871;-80
2021/09/17 08:20:11;;;;;;;8.08;6.47;;;;;;;24.65;73.65;101055.57;1696884;83;21245;-81
2021/09/17 08:22:40;;;;;;;12.15;6.75;;;;;;;24.77;73.54;101053.27;1679068;84;21066;-77
2021/09/17 08:25:09;;;;;;;13.15;6.72;;;;;;;24.83;73.70;101047.25;1697242;84;21502;-81
2021/09/17 08:27:41;;;;;;;16.73;6.78;;;;;;;24.93;73.24;101039.83;1697356;83;21201;-81
2021/09/17 08:30:09;;;;;;;14.70;7.17;;;;;;;25.02;73.06;101045.86;1721414;80;21315;-77
2021/09/17 08:32:40;;;;;;;24.18;6.80;;;;;;;25.11;72.18;101038.92;1705525;83;21006;-85
2021/09/17 08:35:13;;;;;;;10.75;6.40;;;;;;;25.19;71.91;101038.00;1741773;81;20915;-79
2021/09/17 08:37:41;;;;;;;26.87;7.00;;;;;;;25.30;71.49;101032.22;1738636;81;21548;-80
2021/09/17 08:40:10;;;;;;;8.85;5.78;;;;;;;25.42;70.64;101028.05;1725220;82;21556;-83
2021/09/17 08:42:38;;;;;;;21.75;7.75;;;;;;;25.50;70.24;101032.44;1725334;81;21756;-84
2021/09/17 08:45:07;;;;;;;21.20;7.05;;;;;;;25.57;69.80;101031.50;1731892;80;21191;-79
2021/09/17 08:47:39;;;;;;;15.48;6.65;;;;;;;25.67;69.24;101033.84;1700062;81;21102;-83
2021/09/17 08:50:08;;;;;;;16.65;6.50;;;;;;;25.77;68.73;101027.70;1723756;81;21580;-80
2021/09/17 08:52:41;;;;;;;22.58;7.05;;;;;;;25.89;68.50;101033.31;1724604;83;21650;-81
2021/09/17 08:55:10;;;;;;;8.58;6.62;;;;;;;25.99;67.73;101029.33;1724981;81;21107;-81
2021/09/17 08:57:44;;;;;;;21.30;6.92;;;;;;;26.06;66.52;101036.86;1725052;83;21715;-82
2021/09/17 09:00:37;;;;;;;17.60;7.20;;;;;;;26.08;66.25;101026.00;1726337;81;21021;-80
2021/09/17 09:03:09;;;;;;;14.30;6.25;;;;;;;26.12;66.05;101020.12;1711938;78;20900;-80
2021/09/17 09:05:41;;;;;;;18.77;7.20;;;;;;;26.16;66.32;101019.27;1739136;82;21696;-82
2021/09/17 09:08:09;;;;;;;16.20;7.15;;;;;;;26.29;65.94;101018.02;1737437;82;21198;-80
2021/09/17 09:10:40;;;;;;;12.25;6.67;;;;;;;26.33;65.81;101011.78;1736555;82;20995;-84
2021/09/17 09:13:09;;;;;;;18.15;7.08;;;;;;;26.40;65.51;101006.82;1736537;82;20987;-79
2021/09/17 09:15:36;;;;;;;13.28;7.08;;;;;;;26.50;64.91;101004.62;1721916;82;21041;-77
2021/09/17 09:18:13;;;;;;;33.35;8.50;;;;;;;26.61;64.34;100996.08;1718992;83;21090;-86
2021/09/17 09:20:43;;;;;;;16.55;7.85;;;;;;;26.73;64.20;100999.02;1718591;83;21080;-81
2021/09/17 09:23:28;;;;;;;14.90;7.83;;;;;;;26.79;63.33;100999.55;1718502;82;21606;-80
2021/09/17 09:26:06;;;;;;;15.45;8.55;;;;;;;26.80;62.99;100999.87;1719121;82;21023;-76
2021/09/17 09:28:36;;;;;;;10.85;6.42;;;;;;;26.83;63.43;100988.31;1718447;82;21024;-82
2021/09/17 09:31:11;;;;;;;16.37;7.33;;;;;;;26.98;62.71;100996.68;1718316;83;21003;-76
2021/09/17 09:33:46;;;;;;;18.73;6.55;;;;;;;27.08;62.67;100988.63;1718668;83;21165;-80
2021/09/17 09:36:19;;;;;;;15.95;7.62;;;;;;;27.15;62.41;100994.80;1717262;83;21816;-83
2021/09/17 09:38:53;;;;;;;;;;;;;;;27.12;61.20;100990.39;1721554;83;20991;-81
2021/09/17 09:41:24;;;;;;;11.85;5.95;;;;;;;27.02;62.07;100992.61;1717851;82;20745;-83
2021/09/17 09:44:16;;;;;;;14.83;6.12;;;;;;;27.02;62.15;100992.61;1718651;83;21082;-79
2021/09/17 09:46:47;;;;;;;8.58;5.58;;;;;;;27.34;62.04;100979.87;1719485;82;21996;-78
2021/09/17 09:49:22;;;;;;;21.10;6.65;;;;;;;27.52;61.20;100979.30;1719429;82;21019;-85
2021/09/17 09:52:06;;;;;;;10.35;5.67;;;;;;;27.55;61.31;100977.05;1718900;81;21137;-76
2021/09/17 09:54:34;;;;;;;16.37;6.22;;;;;;;27.75;61.01;100976.55;1718787;82;21098;-79
2021/09/17 09:57:03;;;;;;;12.78;6.08;;;;;;;28.48;59.24;100972.45;1718817;83;21518;-77
2021/09/17 09:59:34;;;;;;;15.80;5.33;;;;;;;29.37;56.32;100958.59;1718925;82;20861;-85
2021/09/17 10:02:04;;;;;;;13.00;5.30;;;;;;;30.28;53.67;100961.51;1718797;83;21059;-83
2021/09/17 10:04:33;;;;;;;16.25;4.97;;;;;;;30.85;51.26;100955.69;1734662;81;22214;-85
2021/09/17 10:07:07;;;;;;;8.08;5.25;;;;;;;31.52;49.67;100953.71;1746376;81;21062;-80
2021/09/17 10:09:39;;;;;;;16.48;5.50;;;;;;;32.23;46.98;100949.45;1745799;82;21045;-79
2021/09/17 10:12:09;;;;;;;21.80;5.08;;;;;;;32.43;46.21;100940.48;1744972;82;21741;-78
2021/09/17 10:14:38;;;;;;;21.80;5.95;;;;;;;32.62;45.17;100940.33;1750015;80;20990;-82
2021/09/17 10:17:09;;;;;;;20.43;6.53;;;;;;;32.76;44.98;100939.82;1718796;82;21035;-81
2021/09/17 10:19:36;;;;;;;20.37;6.20;;;;;;;32.74;44.38;100940.57;1719716;82;21053;-78
2021/09/17 10:22:05;;;;;;;14.70;5.67;;;;;;;32.36;44.47;100937.63;1711057;83;21006;-77
2021/09/17 10:24:41;;;;;;;12.13;5.03;;;;;;;32.35;45.22;100936.02;1711402;83;21138;-80
2021/09/17 10:27:30;;;;;;;13.50;4.80;;;;;;;32.73;44.41;100932.23;1711376;82;21483;-79
2021/09/17 10:30:02;;;;;;;12.40;4.85;;;;;;;33.13;43.27;100934.86;1711981;83;21049;-85
2021/09/17 10:32:50;;;;;;;29.55;5.85;;;;;;;32.65;43.94;100932.61;1712000;83;21042;-79
2021/09/17 10:35:29;;;;;;;13.53;4.92;;;;;;;32.01;45.22;100937.66;1711298;83;21616;-86
2021/09/17 10:38:10;;;;;;;15.63;5.87;;;;;;;31.25;46.98;100918.41;1712982;83;21046;-79
2021/09/17 10:41:02;;;;;;;16.23;5.08;;;;;;;30.73;48.59;100925.86;1711213;83;21545;-84
2021/09/17 10:43:46;;;;;;;12.70;5.58;;;;;;;30.83;48.98;100918.89;1710942;83;21065;-79
2021/09/17 10:46:31;;;;;;;16.70;5.53;;;;;;;30.70;49.58;100915.57;1711284;82;21097;-84
2021/09/17 10:48:58;;;;;;;11.63;5.20;;;;;;;30.46;50.12;100913.32;1711428;83;21071;-81
2021/09/17 10:51:39;;;;;;;10.03;5.08;;;;;;;30.12;51.26;100909.38;1711376;83;21238;-81
2021/09/17 10:54:19;;;;;;;13.13;4.92;;;;;;;30.03;51.76;100898.64;1716344;83;21018;-85
2021/09/17 10:57:00;;;;;;;15.65;5.47;;;;;;;29.91;51.97;100901.77;1711543;83;21372;-81
2021/09/17 10:59:43;;;;;;;22.40;5.80;;;;;;;29.62;52.73;100901.91;1712351;83;21546;-83
2021/09/17 11:02:11;;;;;;;13.48;6.00;;;;;;;29.38;53.75;100898.23;1711736;83;21129;-81
2021/09/17 11:04:46;;;;;;;15.80;6.17;;;;;;;29.11;54.61;100894.58;1707285;83;21061;-82
2021/09/17 11:07:38;;;;;;;13.70;5.85;;;;;;;28.88;55.56;100894.63;1700169;82;21734;-83
2021/09/17 11:10:07;;;;;;;13.93;6.37;;;;;;;28.72;56.40;100891.63;1701319;84;21556;-88
2021/09/17 11:12:38;;;;;;;26.23;7.30;;;;;;;28.59;57.02;100887.16;1700718;82;21078;-77
2021/09/17 11:15:15;;;;;;;12.20;6.55;;;;;;;28.41;57.42;100881.70;1699697;83;21001;-88
2021/09/17 11:17:49;;;;;;;14.93;6.40;;;;;;;28.27;57.87;100882.27;1699196;84;21136;-80
2021/09/17 11:20:22;;;;;;;14.07;6.05;;;;;;;28.25;58.17;100874.99;1700527;83;21061;-80
2021/09/17 11:22:57;;;;;;;14.33;6.08;;;;;;;28.19;58.27;100879.02;1700652;84;21048;-82
2021/09/17 11:25:31;;;;;;;16.97;5.50;;;;;;;28.47;58.01;100864.01;1699943;84;21695;-84